Shonto, Arizona
Current Conditions -  °F | °C
As of 8:55 PM on Wednesday 22 Oct 2014 (Local Time) from KBDG Reporting Station
Clear Clear  
Wind Chill: 53°   Ceiling: Unl
Heat Index: 53°   Visibility: 10mi
Dew Point: 29°   Wind: 8mph
Humidity: 39%   Direction: 20°NNE
Pressure: 30.26"   Gusts: NA
Location:  36.59°N, 110.65°W
Report Text: KBDG 230255Z AUTO 02007KT 10SM CLR 12/M02 A3026 RMK AO1 T01181017
Loading
Personal Weather Stations






























Interactive Weather Map
Tropical Storm Tracking
New forecast layout! Learn more

10-Day Weather Forecast

Advertisements
Track Severe Weather on mobile